Time;durP1;ratioP1;P1;durP2;ratioP2;P2;SDS_P1;SDS_P2;PMS_P1;PMS_P2;Temp;Humidity;BMP_temperature;BMP_pressure;BME280_temperature;BME280_humidity;BME280_pressure;Samples;Min_cycle;Max_cycle;Signal;HPM_P1;HPM_P2
2023/06/20 00:00:39;;;;;;;14.77;10.93;;;;;;;;;;5033593;28;20421;-77
2023/06/20 00:03:05;;;;;;;15.98;11.40;;;;;;;;;;5052020;28;20504;-77
2023/06/20 00:05:30;;;;;;;17.52;11.20;;;18.50;99.90;;;;;;5017154;28;20413;-77
2023/06/20 00:07:56;;;;;;;14.40;11.13;;;18.50;99.90;;;;;;5015896;28;20960;-77
2023/06/20 00:10:22;;;;;;;18.43;11.57;;;;;;;;;;5030558;28;20451;-77
2023/06/20 00:12:48;;;;;;;20.45;12.18;;;;;;;;;;5050256;28;20445;-77
2023/06/20 00:15:14;;;;;;;16.23;11.80;;;18.70;99.90;;;;;;5048759;28;20428;-77
2023/06/20 00:17:40;;;;;;;16.27;12.07;;;19.00;99.90;;;;;;5050888;28;20425;-77
2023/06/20 00:20:08;;;;;;;17.37;12.00;;;;;;;;;;5016807;28;20928;-77
2023/06/20 00:22:34;;;;;;;17.10;12.25;;;18.70;99.90;;;;;;5048760;28;20421;-77
2023/06/20 00:25:04;;;;;;;17.40;11.90;;;18.60;99.90;;;;;;5047019;28;20511;-77
2023/06/20 00:27:30;;;;;;;17.03;12.30;;;;;;;;;;5014951;28;20410;-77
2023/06/20 00:29:57;;;;;;;15.27;11.57;;;;;;;;;;5031039;28;20842;-77
2023/06/20 00:32:23;;;;;;;17.92;12.32;;;;;;;;;;5049206;28;20421;-77
2023/06/20 00:34:49;;;;;;;17.70;12.52;;;18.40;99.90;;;;;;5033642;28;20413;-77
2023/06/20 00:37:15;;;;;;;21.27;12.57;;;;;;;;;;5049783;28;20425;-76
2023/06/20 00:39:41;;;;;;;17.05;12.15;;;;;;;;;;5047475;28;20429;-76
2023/06/20 00:42:20;;;;;;;17.13;11.85;;;18.40;99.90;;;;;;5023785;28;20771;-76
2023/06/20 00:44:46;;;;;;;18.95;13.57;;;18.60;99.90;;;;;;5049670;28;20425;-76
2023/06/20 00:47:15;;;;;;;18.80;13.82;;;;;;;;;;5049061;28;20417;-76
2023/06/20 00:49:42;;;;;;;19.08;13.80;;;18.70;99.90;;;;;;5050201;28;20417;-76
2023/06/20 00:52:08;;;;;;;18.17;13.30;;;;;;;;;;5032841;28;20421;-77
2023/06/20 00:54:34;;;;;;;18.85;13.80;;;;;;;;;;5050663;28;20413;-77
2023/06/20 00:57:01;;;;;;;19.20;13.48;;;18.50;99.90;;;;;;5047556;28;20427;-77
2023/06/20 00:59:27;;;;;;;19.42;14.25;;;18.40;99.90;;;;;;5031811;28;20424;-77
2023/06/20 01:01:53;;;;;;;19.53;14.57;;;;;;;;;;5016283;28;20421;-76
2023/06/20 01:04:20;;;;;;;19.73;14.95;;;;;;;;;;5049235;28;20421;-76
2023/06/20 01:07:08;;;;;;;21.60;15.52;;;;;;;;;;5031677;28;20463;-77
2023/06/20 01:10:11;;;;;;;22.55;16.70;;;18.00;99.90;;;;;;5049454;28;20508;-77
2023/06/20 01:13:06;;;;;;;23.23;16.63;;;;;;;;;;5030740;28;20440;-76
2023/06/20 01:15:35;;;;;;;24.73;16.45;;;;;;;;;;5029522;28;20568;-76
2023/06/20 01:18:25;;;;;;;23.75;17.05;;;17.50;99.90;;;;;;5049666;28;20797;-76
2023/06/20 01:21:00;;;;;;;22.13;16.67;;;17.50;99.90;;;;;;5037092;28;20428;-77
2023/06/20 01:23:32;;;;;;;27.92;16.90;;;17.60;99.90;;;;;;5047001;28;20413;-77
2023/06/20 01:26:01;;;;;;;22.58;16.35;;;;;;;;;;5048992;28;20426;-76
2023/06/20 01:28:34;;;;;;;19.67;15.23;;;;;;;;;;5048398;28;20654;-77
2023/06/20 01:31:11;;;;;;;22.58;15.27;;;17.50;99.90;;;;;;5046699;28;20460;-75
2023/06/20 01:33:58;;;;;;;20.02;14.93;;;17.40;99.90;;;;;;5046965;28;20920;-76
2023/06/20 01:36:31;;;;;;;21.98;14.55;;;17.30;99.90;;;;;;5032164;28;20872;-76
2023/06/20 01:38:59;;;;;;;22.13;14.50;;;;;;;;;;5034299;28;20828;-77
2023/06/20 01:41:26;;;;;;;20.55;14.00;;;17.60;99.90;;;;;;5046784;28;20482;-77
2023/06/20 01:43:55;;;;;;;21.25;14.15;;;;;;;;;;5033210;28;20420;-77
2023/06/20 01:46:22;;;;;;;18.38;13.55;;;17.50;99.90;;;;;;5047266;28;20435;-77
2023/06/20 01:48:51;;;;;;;17.70;14.00;;;17.60;99.90;;;;;;5016511;28;20421;-77
2023/06/20 01:51:17;;;;;;;18.02;12.88;;;17.50;99.90;;;;;;5049309;28;20411;-77
2023/06/20 01:53:44;;;;;;;18.25;13.65;;;17.60;99.90;;;;;;5031514;28;20417;-76
2023/06/20 01:56:10;;;;;;;19.77;13.60;;;;;;;;;;5047855;28;20413;-77
2023/06/20 01:58:40;;;;;;;20.73;13.50;;;17.70;99.90;;;;;;5049038;28;20454;-77
2023/06/20 02:01:07;;;;;;;17.65;13.10;;;;;;;;;;5036263;28;20397;-76
2023/06/20 02:03:33;;;;;;;21.02;13.15;;;;;;;;;;5050159;28;20417;-76
2023/06/20 02:06:01;;;;;;;15.17;12.43;;;17.50;99.90;;;;;;5053012;28;20417;-76
2023/06/20 02:08:30;;;;;;;18.67;12.93;;;17.50;99.90;;;;;;5053188;28;20519;-76
2023/06/20 02:10:57;;;;;;;16.40;12.25;;;17.70;99.90;;;;;;5053553;28;20825;-76
2023/06/20 02:13:24;;;;;;;18.38;12.60;;;;;;;;;;5052350;28;20424;-76
2023/06/20 02:15:52;;;;;;;17.40;12.43;;;17.60;99.90;;;;;;5033181;28;20425;-76
2023/06/20 02:18:19;;;;;;;17.67;12.37;;;17.60;99.90;;;;;;5052846;28;20425;-76
2023/06/20 02:20:50;;;;;;;15.90;12.30;;;17.70;99.90;;;;;;5051973;28;20423;-76
2023/06/20 02:23:21;;;;;;;16.65;12.07;;;17.70;99.90;;;;;;5047829;28;20417;-76
2023/06/20 02:25:47;;;;;;;16.05;12.50;;;;;;;;;;5052759;28;20484;-76
2023/06/20 02:28:15;;;;;;;18.02;12.88;;;17.70;99.90;;;;;;5052726;28;20510;-76
2023/06/20 02:30:42;;;;;;;17.67;12.55;;;17.60;99.90;;;;;;5052882;28;20409;-76
2023/06/20 02:33:10;;;;;;;17.52;12.73;;;17.80;99.90;;;;;;5031710;28;20486;-76
2023/06/20 02:35:37;;;;;;;19.80;12.85;;;;;;;;;;5046240;28;20420;-76
2023/06/20 02:38:05;;;;;;;19.25;12.63;;;17.50;99.90;;;;;;5049428;28;20441;-76
2023/06/20 02:40:30;;;;;;;18.15;12.68;;;17.50;99.90;;;;;;5017062;28;20414;-76
2023/06/20 02:42:56;;;;;;;18.80;12.23;;;17.50;99.90;;;;;;5041330;28;20901;-76
2023/06/20 02:45:22;;;;;;;17.97;12.90;;;;;;;;;;5052002;28;20421;-76
2023/06/20 02:48:04;;;;;;;17.42;12.52;;;17.60;99.90;;;;;;5049996;28;20569;-76
2023/06/20 02:50:34;;;;;;;15.85;12.05;;;;;;;;;;5050221;28;20515;-76
2023/06/20 02:53:12;;;;;;;17.08;12.02;;;17.50;99.90;;;;;;5035770;28;20424;-76
2023/06/20 02:55:56;;;;;;;16.30;12.18;;;17.50;99.90;;;;;;5034685;28;20417;-76
2023/06/20 02:58:25;;;;;;;16.13;11.88;;;17.40;99.90;;;;;;5051922;28;20425;-76
2023/06/20 03:00:52;;;;;;;18.08;11.52;;;17.40;99.90;;;;;;5035665;28;20963;-76
2023/06/20 03:03:24;;;;;;;17.13;11.63;;;;;;;;;;5047010;28;20421;-76
2023/06/20 03:05:56;;;;;;;15.80;11.40;;;17.60;99.90;;;;;;5034004;28;20946;-76
2023/06/20 03:08:23;;;;;;;17.55;11.90;;;;;;;;;;5008694;28;20448;-76
2023/06/20 03:10:49;;;;;;;15.13;11.50;;;;;;;;;;5049329;28;20897;-76
2023/06/20 03:13:16;;;;;;;16.40;11.27;;;17.60;99.90;;;;;;5050528;28;20414;-76
2023/06/20 03:15:42;;;;;;;16.88;11.13;;;17.50;99.90;;;;;;5025717;28;20438;-75
2023/06/20 03:18:08;;;;;;;16.23;11.57;;;;;;;;;;5034932;28;20429;-75
2023/06/20 03:20:34;;;;;;;17.52;11.90;;;17.60;99.90;;;;;;5050443;28;20492;-76
2023/06/20 03:23:00;;;;;;;15.65;11.50;;;;;;;;;;5033456;28;20496;-75
2023/06/20 03:25:26;;;;;;;16.08;11.85;;;17.60;99.90;;;;;;5049930;28;20428;-75
2023/06/20 03:27:52;;;;;;;16.53;11.63;;;;;;;;;;5034619;28;20418;-75
2023/06/20 03:30:19;;;;;;;18.48;11.63;;;17.60;99.90;;;;;;5050499;28;20409;-75
2023/06/20 03:32:45;;;;;;;18.08;11.35;;;;;;;;;;5018120;28;20418;-75
2023/06/20 03:35:11;;;;;;;14.55;11.43;;;;;;;;;;5050503;28;20933;-75
2023/06/20 03:37:37;;;;;;;15.82;11.88;;;;;;;;;;5035886;28;20765;-75
2023/06/20 03:40:04;;;;;;;16.30;11.93;;;;;;;;;;5048990;28;20425;-75
2023/06/20 03:42:31;;;;;;;17.23;11.93;;;;;;;;;;5050874;28;20508;-75
2023/06/20 03:44:58;;;;;;;16.25;12.20;;;;;;;;;;5032946;28;20445;-75
2023/06/20 03:47:24;;;;;;;14.68;11.07;;;;;;;;;;5052179;28;20929;-75
2023/06/20 03:49:50;;;;;;;15.07;11.50;;;17.50;99.90;;;;;;5033707;28;20514;-75
2023/06/20 03:52:15;;;;;;;16.52;11.73;;;17.60;99.90;;;;;;5050542;28;20899;-76
2023/06/20 03:54:41;;;;;;;17.33;11.90;;;;;;;;;;5050479;28;20452;-76
2023/06/20 03:57:08;;;;;;;17.98;11.80;;;;;;;;;;5049460;28;20909;-76
2023/06/20 03:59:34;;;;;;;15.68;11.18;;;;;;;;;;5051311;28;20951;-76
2023/06/20 04:01:59;;;;;;;16.20;11.57;;;17.70;99.90;;;;;;5050489;28;20498;-76
2023/06/20 04:04:25;;;;;;;18.08;11.43;;;;;;;;;;5033070;28;20928;-77
2023/06/20 04:06:51;;;;;;;15.05;11.15;;;17.60;99.90;;;;;;5033593;28;20863;-77
2023/06/20 04:09:17;;;;;;;16.42;11.65;;;17.60;99.90;;;;;;5020119;28;20425;-77
2023/06/20 04:11:44;;;;;;;17.00;11.30;;;17.60;99.90;;;;;;5048643;28;20429;-77
2023/06/20 04:14:10;;;;;;;14.30;10.50;;;;;;;;;;5034550;28;20514;-78
2023/06/20 04:16:36;;;;;;;14.77;10.80;;;17.90;99.90;;;;;;5053383;28;20409;-77
2023/06/20 04:19:02;;;;;;;14.48;10.52;;;;;;;;;;5034523;28;20456;-77
2023/06/20 04:21:31;;;;;;;13.27;9.93;;;;;;;;;;5034808;28;20765;-77
2023/06/20 04:23:57;;;;;;;13.93;10.20;;;17.70;99.90;;;;;;5029402;28;20472;-77
2023/06/20 04:26:23;;;;;;;14.55;10.60;;;;;;;;;;5057742;28;20426;-77
2023/06/20 04:28:49;;;;;;;13.95;10.82;;;17.60;99.90;;;;;;5044882;28;20451;-76
2023/06/20 04:31:15;;;;;;;16.33;10.77;;;17.60;99.90;;;;;;5043034;28;20429;-77
2023/06/20 04:33:43;;;;;;;15.05;11.10;;;18.00;99.90;;;;;;5058153;28;20417;-77
2023/06/20 04:36:15;;;;;;;16.05;11.52;;;17.90;99.90;;;;;;5018201;28;20933;-77
2023/06/20 04:38:41;;;;;;;14.80;11.15;;;;;;;;;;5048589;28;20434;-76
2023/06/20 04:41:07;;;;;;;13.95;11.00;;;;;;;;;;5033499;28;20912;-77
2023/06/20 04:43:33;;;;;;;13.45;10.63;;;;;;;;;;5028258;28;20425;-77
2023/06/20 04:46:00;;;;;;;14.23;11.00;;;;;;;;;;5034083;28;20428;-77
2023/06/20 04:48:29;;;;;;;14.60;11.07;;;;;;;;;;5051404;28;20405;-77
2023/06/20 04:50:56;;;;;;;14.32;10.93;;;;;;;;;;5044712;28;20463;-77
2023/06/20 04:53:23;;;;;;;15.65;11.38;;;18.00;99.90;;;;;;5046951;28;20436;-78
2023/06/20 04:55:49;;;;;;;14.82;11.23;;;17.90;99.90;;;;;;5031865;28;20480;-77
2023/06/20 04:58:15;;;;;;;14.80;11.05;;;17.80;99.90;;;;;;5049731;28;20490;-76
2023/06/20 05:00:41;;;;;;;15.32;11.20;;;;;;;;;;5044960;28;20409;-76
2023/06/20 05:03:09;;;;;;;17.10;11.20;;;18.20;99.90;;;;;;5028914;28;20435;-76
2023/06/20 05:05:35;;;;;;;17.85;11.43;;;;;;;;;;5032761;28;20433;-75
2023/06/20 05:08:01;;;;;;;14.68;10.75;;;;;;;;;;5030734;28;20437;-76
2023/06/20 05:10:27;;;;;;;13.90;11.20;;;;;;;;;;5041329;28;20443;-77
2023/06/20 05:12:53;;;;;;;14.73;10.85;;;18.30;99.90;;;;;;5049883;28;20479;-78
2023/06/20 05:15:23;;;;;;;13.07;10.30;;;;;;;;;;5044428;28;20823;-77
2023/06/20 05:17:53;;;;;;;13.63;10.23;;;;;;;;;;5030658;28;20432;-78
2023/06/20 05:20:20;;;;;;;13.85;10.13;;;18.50;99.90;;;;;;5031689;28;20465;-80
2023/06/20 05:22:46;;;;;;;13.32;9.82;;;;;;;;;;5047143;28;20429;-80
2023/06/20 05:25:12;;;;;;;15.10;10.32;;;;;;;;;;5045939;28;20430;-77
2023/06/20 05:27:38;;;;;;;12.43;9.55;;;18.60;99.90;;;;;;5021661;28;20459;-77
2023/06/20 05:30:05;;;;;;;13.25;9.57;;;18.50;99.90;;;;;;5044085;28;20469;-76
2023/06/20 05:32:31;;;;;;;14.98;10.02;;;18.40;99.90;;;;;;5045624;28;20990;-77
2023/06/20 05:34:56;;;;;;;13.27;9.90;;;18.40;99.90;;;;;;5029729;28;20421;-77
2023/06/20 05:37:23;;;;;;;13.07;10.10;;;;;;;;;;5042351;28;20739;-76
2023/06/20 05:39:49;;;;;;;13.70;10.13;;;;;;;;;;5047365;28;20425;-77
2023/06/20 05:42:16;;;;;;;16.10;11.23;;;;;;;;;;5028695;28;20418;-77
2023/06/20 05:44:42;;;;;;;14.13;10.80;;;;;;;;;;5027837;28;20421;-78
2023/06/20 05:47:17;;;;;;;16.02;11.40;;;;;;;;;;5030408;28;20437;-78
2023/06/20 05:49:43;;;;;;;17.33;11.93;;;;;;;;;;5030887;28;20913;-78
2023/06/20 05:52:09;;;;;;;15.13;11.20;;;;;;;;;;5032044;28;20974;-78
2023/06/20 05:54:36;;;;;;;16.40;11.63;;;;;;;;;;5046212;28;20428;-77
2023/06/20 05:57:03;;;;;;;16.98;11.68;;;;;;;;;;5041682;28;20811;-78
2023/06/20 05:59:28;;;;;;;13.85;11.50;;;18.70;99.90;;;;;;5023508;28;20425;-78
2023/06/20 06:01:54;;;;;;;14.73;11.57;;;;;;;;;;5044001;28;20428;-77
2023/06/20 06:04:20;;;;;;;15.20;11.90;;;;;;;;;;5042097;28;20425;-77
2023/06/20 06:06:46;;;;;;;15.02;12.32;;;;;;;;;;5029200;28;20424;-78
2023/06/20 06:09:13;;;;;;;15.23;11.68;;;;;;;;;;5049326;28;20880;-79
2023/06/20 06:11:39;;;;;;;17.47;12.23;;;;;;;;;;5044127;28;20940;-79
2023/06/20 06:14:05;;;;;;;15.45;11.82;;;;;;;;;;5044628;28;20430;-79
2023/06/20 06:16:32;;;;;;;19.13;12.35;;;;;;;;;;5020415;28;21000;-78
2023/06/20 06:18:59;;;;;;;13.90;11.85;;;19.00;99.90;;;;;;5046565;28;21043;-78
2023/06/20 06:21:25;;;;;;;15.40;11.95;;;18.80;99.90;;;;;;5046002;28;20413;-78
2023/06/20 06:23:51;;;;;;;16.95;11.65;;;;;;;;;;5027124;28;20425;-78
2023/06/20 06:26:17;;;;;;;17.25;12.20;;;;;;;;;;5041761;28;20732;-80
2023/06/20 06:28:43;;;;;;;16.45;11.68;;;;;;;;;;5026330;28;20773;-79
2023/06/20 06:31:11;;;;;;;14.50;12.30;;;;;;;;;;5024040;28;20421;-79
2023/06/20 06:33:37;;;;;;;16.83;12.40;;;;;;;;;;5045347;28;20453;-79
2023/06/20 06:36:03;;;;;;;14.93;12.02;;;19.20;99.90;;;;;;5031142;28;20421;-79
2023/06/20 06:38:29;;;;;;;15.65;12.20;;;;;;;;;;5029355;28;21025;-79
2023/06/20 06:40:56;;;;;;;17.13;12.57;;;19.50;99.90;;;;;;5044309;28;20516;-79
2023/06/20 06:43:22;;;;;;;13.80;11.67;;;19.50;99.90;;;;;;5028730;28;20495;-78
2023/06/20 06:45:48;;;;;;;16.07;12.80;;;20.20;99.90;;;;;;5016466;28;20460;-78
2023/06/20 06:48:14;;;;;;;14.90;11.45;;;;;;;;;;5030676;28;20425;-79
2023/06/20 06:50:40;;;;;;;15.25;12.02;;;19.90;99.90;;;;;;5033629;28;20421;-79
2023/06/20 06:53:05;;;;;;;16.63;11.93;;;20.00;99.90;;;;;;5046541;28;20424;-79
2023/06/20 06:55:31;;;;;;;16.17;11.73;;;20.10;99.90;;;;;;5028657;28;20439;-78
2023/06/20 06:57:57;;;;;;;13.50;10.27;;;20.40;99.90;;;;;;5028567;28;20917;-78
2023/06/20 07:00:23;;;;;;;17.07;12.10;;;;;;;;;;5023087;28;20422;-78
2023/06/20 07:02:49;;;;;;;14.65;12.20;;;;;;;;;;5044933;28;20479;-79
2023/06/20 07:05:15;;;;;;;17.05;11.88;;;20.50;99.90;;;;;;5033236;28;20947;-78
2023/06/20 07:07:41;;;;;;;14.02;11.77;;;20.50;99.90;;;;;;5015036;28;20421;-79
2023/06/20 07:10:07;;;;;;;15.60;11.83;;;20.50;99.90;;;;;;5048322;28;20424;-76
2023/06/20 07:12:33;;;;;;;19.00;12.40;;;20.40;99.90;;;;;;5034886;28;20433;-76
2023/06/20 07:14:58;;;;;;;15.47;12.07;;;20.50;99.90;;;;;;4990745;28;20480;-76
2023/06/20 07:17:25;;;;;;;16.50;11.82;;;;;;;;;;5048316;28;20512;-75
2023/06/20 07:19:54;;;;;;;13.70;11.73;;;20.50;99.90;;;;;;5045851;28;20429;-79
2023/06/20 07:22:20;;;;;;;13.60;11.75;;;20.90;99.90;;;;;;5029164;28;20441;-79
2023/06/20 07:24:47;;;;;;;14.43;12.32;;;;;;;;;;5050333;28;20501;-80
2023/06/20 07:27:13;;;;;;;14.23;11.90;;;20.80;99.90;;;;;;5032978;28;20417;-77
2023/06/20 07:29:39;;;;;;;16.07;11.97;;;;;;;;;;5049521;28;20668;-77
2023/06/20 07:32:05;;;;;;;13.93;11.37;;;20.90;99.90;;;;;;5052226;28;20409;-76
2023/06/20 07:34:30;;;;;;;14.07;11.87;;;20.70;99.90;;;;;;5015673;28;20816;-76
2023/06/20 07:36:56;;;;;;;14.50;12.43;;;21.10;99.90;;;;;;5044517;28;20500;-76
2023/06/20 07:39:22;;;;;;;14.05;11.10;;;;;;;;;;4991748;28;20521;-76
2023/06/20 07:41:48;;;;;;;15.60;11.32;;;21.20;99.90;;;;;;5048763;28;20743;-73
2023/06/20 07:44:14;;;;;;;15.60;11.93;;;21.20;99.90;;;;;;5031672;28;20551;-73
2023/06/20 07:46:40;;;;;;;14.57;11.70;;;;;;;;;;5045268;28;20425;-75
2023/06/20 07:49:06;;;;;;;13.23;11.40;;;;;;;;;;5049398;28;20920;-77
2023/06/20 07:51:33;;;;;;;14.85;12.27;;;21.10;99.90;;;;;;5048147;28;20432;-77
2023/06/20 07:54:03;;;;;;;13.18;11.48;;;21.40;99.90;;;;;;5048831;28;20424;-77
2023/06/20 07:56:29;;;;;;;16.75;11.50;;;21.50;99.90;;;;;;5015977;28;20924;-77
2023/06/20 07:58:55;;;;;;;13.83;10.87;;;;;;;;;;5033304;28;20417;-77
2023/06/20 08:01:20;;;;;;;12.55;11.10;;;21.60;99.90;;;;;;5047294;28;20429;-74
2023/06/20 08:03:46;;;;;;;13.98;10.95;;;21.40;99.90;;;;;;5032762;28;20413;-77
2023/06/20 08:06:12;;;;;;;14.27;10.80;;;21.60;99.90;;;;;;5044319;28;20432;-75
2023/06/20 08:08:39;;;;;;;15.15;10.90;;;21.70;99.90;;;;;;5049341;28;20820;-74
2023/06/20 08:11:05;;;;;;;14.73;11.15;;;21.80;99.90;;;;;;5028217;28;20428;-74
2023/06/20 08:13:31;;;;;;;12.65;10.50;;;22.00;99.90;;;;;;5043792;28;20456;-74
2023/06/20 08:15:57;;;;;;;14.70;10.77;;;21.80;99.90;;;;;;5043907;28;20456;-74
2023/06/20 08:18:22;;;;;;;14.27;11.30;;;22.00;99.90;;;;;;5061987;28;20607;-74
2023/06/20 08:20:49;;;;;;;13.43;10.30;;;21.90;99.90;;;;;;5026762;28;20932;-74
2023/06/20 08:23:25;;;;;;;13.65;10.70;;;22.10;99.90;;;;;;5043426;28;20513;-75
2023/06/20 08:25:53;;;;;;;12.95;10.20;;;22.10;99.90;;;;;;5033404;28;20818;-74
2023/06/20 08:28:18;;;;;;;13.40;10.48;;;22.30;99.90;;;;;;5046783;28;20443;-74
2023/06/20 08:30:44;;;;;;;15.15;10.73;;;22.30;99.90;;;;;;5017084;28;20418;-74
2023/06/20 08:33:10;;;;;;;13.85;11.38;;;22.20;99.90;;;;;;5029320;28;20785;-74
2023/06/20 08:35:35;;;;;;;14.87;10.57;;;22.30;99.90;;;;;;5048177;28;20433;-74
2023/06/20 08:38:01;;;;;;;15.00;10.52;;;22.10;99.90;;;;;;5033009;28;20465;-75
2023/06/20 08:40:28;;;;;;;10.95;9.57;;;;;;;;;;5048198;28;20429;-74
2023/06/20 08:42:58;;;;;;;10.30;9.17;;;22.30;99.90;;;;;;5023496;28;20951;-74
2023/06/20 08:45:23;;;;;;;12.02;9.57;;;22.30;99.90;;;;;;5026524;28;20421;-75
2023/06/20 08:47:49;;;;;;;11.55;10.32;;;22.20;99.90;;;;;;5029982;28;20539;-75
2023/06/20 08:50:15;;;;;;;12.85;10.10;;;22.30;99.90;;;;;;5028756;28;20419;-75
2023/06/20 08:52:48;;;;;;;16.13;9.95;;;22.60;99.90;;;;;;5028281;28;20478;-75
2023/06/20 08:55:15;;;;;;;11.40;10.00;;;22.60;99.90;;;;;;5047469;28;20421;-75
2023/06/20 08:57:41;;;;;;;11.95;9.40;;;22.50;99.90;;;;;;5031465;28;21022;-74
2023/06/20 09:00:11;;;;;;;15.00;8.75;;;22.40;99.90;;;;;;5047598;28;20464;-74
2023/06/20 09:02:36;;;;;;;10.70;8.98;;;22.40;99.90;;;;;;5044413;28;20793;-74
2023/06/20 09:05:06;;;;;;;10.40;9.13;;;22.70;99.90;;;;;;5043348;28;20444;-74
2023/06/20 09:07:37;;;;;;;12.30;9.32;;;22.60;99.90;;;;;;5043928;28;20550;-75
2023/06/20 09:10:07;;;;;;;13.20;8.97;;;22.80;99.90;;;;;;5044971;28;20973;-75
2023/06/20 09:12:49;;;;;;;10.02;8.73;;;23.00;99.90;;;;;;5043071;28;21012;-75
2023/06/20 09:15:15;;;;;;;10.40;9.10;;;;;;;;;;5022280;28;20426;-75
2023/06/20 09:17:43;;;;;;;11.87;9.33;;;22.80;99.90;;;;;;5019574;28;20436;-76
2023/06/20 09:20:13;;;;;;;12.73;8.88;;;23.00;99.90;;;;;;5046820;28;20431;-78
2023/06/20 09:22:39;;;;;;;12.20;9.18;;;22.90;99.90;;;;;;5029582;28;20827;-78
2023/06/20 09:25:09;;;;;;;10.05;8.52;;;23.10;99.90;;;;;;5043578;28;20429;-78
2023/06/20 09:27:37;;;;;;;10.57;9.07;;;23.00;99.90;;;;;;5045406;28;20422;-77
2023/06/20 09:30:03;;;;;;;11.57;8.75;;;23.50;99.90;;;;;;5047811;28;20433;-77
2023/06/20 09:32:37;;;;;;;11.05;7.97;;;23.60;99.90;;;;;;5045959;28;20427;-78
2023/06/20 09:35:08;;;;;;;9.15;7.90;;;23.80;99.90;;;;;;5044199;28;20769;-78
2023/06/20 09:37:40;;;;;;;9.20;8.02;;;24.10;99.90;;;;;;5014110;28;20429;-77
2023/06/20 09:40:10;;;;;;;11.50;7.45;;;24.40;99.90;;;;;;5045416;28;20793;-77
2023/06/20 09:42:37;;;;;;;9.57;7.97;;;24.50;99.90;;;;;;5027264;28;20461;-75
2023/06/20 09:45:04;;;;;;;10.70;7.35;;;24.60;99.90;;;;;;5031003;28;20447;-75
2023/06/20 09:47:30;;;;;;;11.93;7.45;;;24.90;99.90;;;;;;5041455;28;20505;-74
2023/06/20 09:49:57;;;;;;;9.85;7.85;;;25.00;99.90;;;;;;5046018;28;20436;-75
2023/06/20 09:52:32;;;;;;;10.98;7.63;;;25.20;99.90;;;;;;5042741;28;20561;-75
2023/06/20 09:55:02;;;;;;;10.85;7.82;;;25.00;99.90;;;;;;5028232;28;20932;-75
2023/06/20 09:57:53;;;;;;;10.03;7.40;;;24.70;99.90;;;;;;5032222;28;20770;-75
2023/06/20 10:00:20;;;;;;;9.68;8.15;;;25.20;99.90;;;;;;5027891;28;20797;-75
2023/06/20 10:02:52;;;;;;;8.63;7.80;;;24.90;99.90;;;;;;5041522;28;20433;-75
2023/06/20 10:05:19;;;;;;;10.48;7.50;;;24.80;99.90;;;;;;5017739;28;20415;-75
2023/06/20 10:07:47;;;;;;;8.60;7.70;;;25.30;99.90;;;;;;5037752;28;20460;-75
2023/06/20 10:10:15;;;;;;;9.02;7.78;;;25.50;99.90;;;;;;5040796;28;20901;-75
2023/06/20 10:12:42;;;;;;;9.55;7.80;;;25.50;99.90;;;;;;5028602;28;20436;-75
2023/06/20 10:15:09;;;;;;;8.40;7.47;;;25.60;99.90;;;;;;5041245;28;20479;-76
2023/06/20 10:17:46;;;;;;;13.07;7.45;;;25.50;99.90;;;;;;5043539;28;20413;-75
2023/06/20 10:20:37;;;;;;;8.48;7.60;;;26.30;99.90;;;;;;5050013;28;20429;-75
2023/06/20 10:23:09;;;;;;;9.10;7.40;;;25.70;99.90;;;;;;5034253;28;20602;-75
2023/06/20 10:25:52;;;;;;;10.32;7.22;;;26.10;99.90;;;;;;5049702;28;20419;-74
2023/06/20 10:28:21;;;;;;;10.20;6.90;;;25.60;99.90;;;;;;5050788;28;20443;-74
2023/06/20 10:30:49;;;;;;;15.18;7.43;;;26.00;99.90;;;;;;5041736;28;20431;-74
2023/06/20 10:33:26;;;;;;;10.07;6.88;;;25.80;99.90;;;;;;5046864;28;20417;-75
2023/06/20 10:35:58;;;;;;;8.18;6.70;;;26.10;99.90;;;;;;5013112;28;20954;-75
2023/06/20 10:38:26;;;;;;;8.45;6.97;;;26.60;99.90;;;;;;5031530;28;20431;-75
2023/06/20 10:41:20;;;;;;;11.77;7.22;;;26.40;99.90;;;;;;5049616;28;20461;-74
2023/06/20 10:43:52;;;;;;;7.53;6.38;;;26.70;99.90;;;;;;5043633;28;20449;-75
2023/06/20 10:46:19;;;;;;;6.90;6.15;;;27.30;99.90;;;;;;5047390;28;20421;-75
2023/06/20 10:48:45;;;;;;;7.53;5.55;;;26.70;99.90;;;;;;5014116;28;20779;-78
2023/06/20 10:51:11;;;;;;;7.63;5.90;;;26.90;99.90;;;;;;5020499;28;20414;-74
2023/06/20 10:53:37;;;;;;;7.78;6.00;;;26.80;99.90;;;;;;5050046;28;20425;-74
2023/06/20 10:56:03;;;;;;;6.45;5.40;;;26.60;99.90;;;;;;5024125;28;20432;-74
2023/06/20 10:58:29;;;;;;;7.15;5.72;;;26.90;99.90;;;;;;5035468;28;20429;-75
2023/06/20 11:00:55;;;;;;;7.10;6.40;;;27.20;99.90;;;;;;5036902;28;20404;-73
2023/06/20 11:03:23;;;;;;;7.63;5.80;;;26.90;99.90;;;;;;5032702;28;20901;-74
2023/06/20 11:05:55;;;;;;;8.65;6.38;;;27.40;99.90;;;;;;5032642;28;20770;-74
2023/06/20 11:08:25;;;;;;;7.70;5.47;;;27.20;99.90;;;;;;5048359;28;20428;-74
2023/06/20 11:10:51;;;;;;;8.15;5.70;;;27.00;99.90;;;;;;5048120;28;20885;-74
2023/06/20 11:13:17;;;;;;;6.87;5.70;;;27.20;99.90;;;;;;5020864;28;20515;-75
2023/06/20 11:15:43;;;;;;;10.07;5.90;;;27.40;99.90;;;;;;5043397;28;20465;-78
2023/06/20 11:18:09;;;;;;;7.20;5.95;;;27.00;99.90;;;;;;5029462;28;20498;-77
2023/06/20 11:20:37;;;;;;;7.50;5.70;;;26.50;99.90;;;;;;5046667;28;20425;-77
2023/06/20 11:23:04;;;;;;;8.02;6.00;;;27.20;99.90;;;;;;5045931;28;20904;-78
2023/06/20 11:25:32;;;;;;;9.27;5.90;;;27.10;99.90;;;;;;5027676;28;20421;-77
2023/06/20 11:28:09;;;;;;;8.73;5.88;;;27.90;99.90;;;;;;5048442;28;20491;-77
2023/06/20 11:30:37;;;;;;;9.02;6.00;;;27.40;99.90;;;;;;5035271;28;20445;-78
2023/06/20 11:33:05;;;;;;;11.18;6.35;;;27.90;99.90;;;;;;5046492;28;20456;-78
2023/06/20 11:35:54;;;;;;;9.52;6.03;;;27.80;99.90;;;;;;5046968;28;20417;-78
2023/06/20 11:38:25;;;;;;;8.32;5.93;;;27.90;99.90;;;;;;5023853;28;20941;-77
2023/06/20 11:41:06;;;;;;;8.20;5.88;;;28.30;99.90;;;;;;5049496;28;20439;-76
2023/06/20 11:43:40;;;;;;;6.95;5.20;;;27.80;99.90;;;;;;5043251;28;20924;-77
2023/06/20 11:46:07;;;;;;;8.27;6.07;;;28.20;99.90;;;;;;5045685;28;20610;-78
2023/06/20 11:48:33;;;;;;;7.47;5.80;;;28.20;99.90;;;;;;5045691;28;20421;-77
2023/06/20 11:51:04;;;;;;;6.20;5.50;;;28.00;99.90;;;;;;5045975;28;20425;-77
2023/06/20 11:53:35;;;;;;;8.30;6.05;;;27.80;99.90;;;;;;5043615;28;20464;-78
2023/06/20 11:56:04;;;;;;;6.13;5.53;;;28.10;99.90;;;;;;5042420;28;20425;-77
2023/06/20 11:58:44;;;;;;;6.45;5.70;;;28.60;99.90;;;;;;5044447;28;20486;-78
2023/06/20 12:01:17;;;;;;;6.57;5.70;;;28.60;99.90;;;;;;5045091;28;20567;-77
2023/06/20 12:03:44;;;;;;;7.32;5.70;;;29.00;99.90;;;;;;5034623;28;20417;-77
2023/06/20 12:06:35;;;;;;;7.35;6.00;;;28.50;99.90;;;;;;5048735;28;20417;-77
2023/06/20 12:09:17;;;;;;;6.83;5.47;;;28.80;99.90;;;;;;5041341;28;20551;-78
2023/06/20 12:11:54;;;;;;;7.68;5.65;;;28.70;99.90;;;;;;5041370;28;20471;-77
2023/06/20 12:14:22;;;;;;;6.53;5.40;;;28.60;99.90;;;;;;5043484;28;20424;-77
2023/06/20 12:16:49;;;;;;;7.32;5.93;;;28.00;99.90;;;;;;5045016;28;20497;-77
2023/06/20 12:19:15;;;;;;;7.68;5.72;;;28.00;99.90;;;;;;5030373;28;20429;-76
2023/06/20 12:21:42;;;;;;;9.48;5.75;;;28.40;99.90;;;;;;5047595;28;20440;-76
2023/06/20 12:24:12;;;;;;;6.95;5.80;;;28.50;99.90;;;;;;5046584;28;20429;-77
2023/06/20 12:26:38;;;;;;;11.17;5.93;;;28.40;99.90;;;;;;5041304;28;20467;-78
2023/06/20 12:29:04;;;;;;;7.85;5.80;;;28.20;99.90;;;;;;5028500;28;20444;-77
2023/06/20 12:31:31;;;;;;;9.23;5.90;;;28.60;99.90;;;;;;5029714;28;20533;-77
2023/06/20 12:33:57;;;;;;;7.47;5.97;;;28.50;99.90;;;;;;5041323;28;20433;-78
2023/06/20 12:36:23;;;;;;;8.90;5.70;;;28.80;99.90;;;;;;5048477;28;20507;-77
2023/06/20 12:38:49;;;;;;;7.28;5.50;;;28.70;99.90;;;;;;5049999;28;20429;-77
2023/06/20 12:41:17;;;;;;;6.47;5.30;;;28.70;99.90;;;;;;5046278;28;20917;-77
2023/06/20 12:43:43;;;;;;;6.80;5.13;;;29.30;99.90;;;;;;5025349;28;20425;-76
2023/06/20 12:46:09;;;;;;;8.20;6.13;;;29.30;99.90;;;;;;5041666;28;20433;-77
2023/06/20 12:48:36;;;;;;;6.95;6.18;;;29.40;99.90;;;;;;5047021;28;20417;-76
2023/06/20 12:51:01;;;;;;;7.13;6.10;;;28.80;99.90;;;;;;5027644;28;21150;-76
2023/06/20 12:53:28;;;;;;;8.40;5.90;;;29.00;99.90;;;;;;5028617;28;20419;-77
2023/06/20 12:55:55;;;;;;;7.00;5.90;;;28.90;99.90;;;;;;5042179;28;20486;-78
2023/06/20 12:58:21;;;;;;;8.10;5.63;;;29.20;99.90;;;;;;5039880;28;20929;-77
2023/06/20 13:00:51;;;;;;;7.18;5.30;;;28.50;99.90;;;;;;5041775;28;20523;-77
2023/06/20 13:03:17;;;;;;;7.20;5.70;;;28.70;99.90;;;;;;5044500;28;20762;-78
2023/06/20 13:05:43;;;;;;;9.95;5.72;;;28.90;99.90;;;;;;5025895;28;20440;-78
2023/06/20 13:08:09;;;;;;;6.30;5.70;;;29.40;99.90;;;;;;5045878;28;20429;-79
2023/06/20 13:10:36;;;;;;;8.13;6.67;;;28.90;99.90;;;;;;5044640;28;20785;-79